Time;durP1;ratioP1;P1;durP2;ratioP2;P2;SDS_P1;SDS_P2;PMS_P1;PMS_P2;Temp;Humidity;BMP_temperature;BMP_pressure;BME280_temperature;BME280_humidity;BME280_pressure;Samples;Min_cycle;Max_cycle;Signal;HPM_P1;HPM_P2
2022/02/17 00:01:45;;;;;;;0.80;0.20;;;12.60;15.10;;;;;;7354449;19;20150;-61
2022/02/17 00:04:15;;;;;;;0.38;0.20;;;12.60;14.90;;;;;;7361688;19;20025;-61
2022/02/17 00:06:45;;;;;;;0.10;0.10;;;12.60;14.20;;;;;;7361448;19;20796;-60
2022/02/17 00:09:15;;;;;;;0.52;0.05;;;12.80;13.30;;;;;;7358564;19;20017;-60
2022/02/17 00:11:51;;;;;;;0.10;0.10;;;12.70;12.40;;;;;;7379355;19;20014;-63
2022/02/17 00:14:21;;;;;;;0.38;0.20;;;12.80;11.90;;;;;;7362456;19;20013;-61
2022/02/17 00:16:52;;;;;;;0.20;0.20;;;12.80;11.10;;;;;;7360661;19;20011;-60
2022/02/17 00:19:23;;;;;;;0.10;0.10;;;12.70;11.60;;;;;;7358182;19;20007;-60
2022/02/17 00:21:53;;;;;;;0.20;0.20;;;12.80;10.50;;;;;;7356071;19;20047;-60
2022/02/17 00:24:23;;;;;;;0.50;0.13;;;12.80;10.30;;;;;;7369765;19;20045;-61
2022/02/17 00:26:55;;;;;;;1.05;0.20;;;12.80;9.90;;;;;;7368706;19;20010;-60
2022/02/17 00:29:25;;;;;;;0.17;0.10;;;12.80;9.70;;;;;;7385578;19;20010;-62
2022/02/17 00:31:55;;;;;;;1.25;0.10;;;12.80;9.70;;;;;;7363074;19;20043;-61
2022/02/17 00:34:25;;;;;;;0.08;0.08;;;12.80;9.70;;;;;;7369222;19;20087;-61
2022/02/17 00:36:55;;;;;;;0.20;0.20;;;12.80;9.70;;;;;;7368059;19;20010;-60
2022/02/17 00:39:25;;;;;;;0.20;0.10;;;12.80;9.60;;;;;;7362927;19;20018;-60
2022/02/17 00:41:57;;;;;;;0.10;0.10;;;12.80;9.50;;;;;;7362141;19;20007;-62
2022/02/17 00:44:27;;;;;;;0.15;0.10;;;12.80;9.70;;;;;;7390401;19;20086;-61
2022/02/17 00:46:58;;;;;;;0.52;0.10;;;12.80;9.70;;;;;;7367806;19;20024;-61
2022/02/17 00:49:30;;;;;;;0.28;0.10;;;12.80;10.90;;;;;;7364457;19;20356;-61
2022/02/17 00:52:03;;;;;;;2.63;0.35;;;12.70;11.60;;;;;;7363385;19;20027;-60
2022/02/17 00:54:32;;;;;;;0.30;0.20;;;12.70;13.00;;;;;;7367211;19;20006;-60
2022/02/17 00:57:06;;;;;;;0.00;0.00;;;12.60;13.80;;;;;;7368745;19;20015;-60
2022/02/17 00:59:36;;;;;;;0.20;0.10;;;12.50;15.10;;;;;;7384731;19;20014;-60
2022/02/17 01:02:06;;;;;;;0.22;0.20;;;12.40;16.60;;;;;;7359923;19;20118;-60
2022/02/17 01:04:36;;;;;;;0.52;0.10;;;12.30;18.30;;;;;;7364527;19;20014;-60
2022/02/17 01:07:07;;;;;;;0.70;0.20;;;12.20;21.30;;;;;;7368338;19;20462;-60
2022/02/17 01:09:37;;;;;;;0.17;0.10;;;12.10;23.50;;;;;;7363858;19;20443;-60
2022/02/17 01:12:11;;;;;;;0.15;0.10;;;12.00;23.80;;;;;;7360894;19;20054;-60
2022/02/17 01:14:40;;;;;;;0.32;0.20;;;11.90;25.80;;;;;;7387798;19;20025;-61
2022/02/17 01:17:11;;;;;;;0.65;0.17;;;12.00;24.80;;;;;;7365551;19;20099;-61
2022/02/17 01:19:41;;;;;;;0.10;0.10;;;11.90;25.50;;;;;;7364656;19;20002;-61
2022/02/17 01:22:12;;;;;;;0.47;0.10;;;11.90;26.30;;;;;;7362313;19;20101;-60
2022/02/17 01:24:42;;;;;;;0.20;0.10;;;11.90;25.90;;;;;;7367265;19;20018;-61
2022/02/17 01:27:14;;;;;;;0.10;0.00;;;11.90;26.10;;;;;;7366405;19;20091;-61
2022/02/17 01:29:44;;;;;;;0.38;0.10;;;11.80;26.80;;;;;;7383472;19;20474;-62
2022/02/17 01:32:14;;;;;;;0.22;0.10;;;11.80;27.40;;;;;;7360174;19;20006;-60
2022/02/17 01:34:44;;;;;;;0.28;0.10;;;11.80;27.10;;;;;;7363292;19;20011;-61
2022/02/17 01:37:14;;;;;;;0.15;0.10;;;11.80;26.90;;;;;;7366101;19;20010;-60
2022/02/17 01:39:44;;;;;;;0.30;0.20;;;11.80;27.20;;;;;;7361392;19;20078;-60
2022/02/17 01:42:17;;;;;;;0.17;0.10;;;11.70;28.00;;;;;;7361982;19;20086;-60
2022/02/17 01:44:49;;;;;;;0.20;0.10;;;11.70;28.50;;;;;;7388738;19;20088;-60
2022/02/17 01:47:20;;;;;;;0.17;0.10;;;11.60;30.00;;;;;;7365481;19;20014;-61
2022/02/17 01:49:50;;;;;;;0.20;0.10;;;11.60;30.00;;;;;;7360783;19;20582;-62
2022/02/17 01:52:20;;;;;;;0.30;0.10;;;11.50;31.70;;;;;;7361869;19;20470;-60
2022/02/17 01:54:50;;;;;;;0.20;0.13;;;11.50;32.80;;;;;;7368001;19;20014;-60
2022/02/17 01:57:27;;;;;;;0.10;0.10;;;11.50;33.20;;;;;;7365453;19;20022;-60
2022/02/17 01:59:57;;;;;;;0.10;0.10;;;11.40;34.00;;;;;;7360923;19;20010;-61
2022/02/17 02:02:28;;;;;;;0.88;0.30;;;11.40;34.20;;;;;;7382542;19;20011;-60
2022/02/17 02:04:58;;;;;;;0.25;0.10;;;11.40;35.10;;;;;;7362481;19;20074;-60
2022/02/17 02:07:28;;;;;;;0.63;0.10;;;11.40;35.00;;;;;;7364555;19;20006;-60
2022/02/17 02:09:58;;;;;;;0.50;0.10;;;11.40;34.80;;;;;;7360611;19;20465;-60
2022/02/17 02:12:31;;;;;;;0.30;0.10;;;11.40;34.50;;;;;;7359144;19;20069;-60
2022/02/17 02:15:01;;;;;;;0.30;0.10;;;11.40;34.40;;;;;;7362807;19;20021;-60
2022/02/17 02:17:31;;;;;;;0.30;0.10;;;11.40;34.50;;;;;;7384890;19;20089;-60
2022/02/17 02:20:01;;;;;;;0.35;0.10;;;11.40;34.70;;;;;;7359275;19;20486;-59
2022/02/17 02:22:36;;;;;;;0.20;0.10;;;11.40;35.60;;;;;;7361935;19;20029;-60
2022/02/17 02:25:07;;;;;;;0.10;0.05;;;11.30;36.20;;;;;;7364461;19;20458;-59
2022/02/17 02:27:37;;;;;;;0.40;0.20;;;11.30;36.60;;;;;;7362850;19;20041;-60
2022/02/17 02:30:09;;;;;;;0.30;0.20;;;11.40;36.40;;;;;;7360543;19;20035;-60
2022/02/17 02:32:39;;;;;;;1.65;0.10;;;11.40;36.00;;;;;;7381561;19;20019;-60
2022/02/17 02:35:10;;;;;;;0.65;0.20;;;11.40;35.80;;;;;;7363606;19;20011;-60
2022/02/17 02:37:42;;;;;;;0.30;0.10;;;11.40;35.20;;;;;;7363779;19;20546;-60
2022/02/17 02:40:13;;;;;;;0.20;0.10;;;11.40;36.20;;;;;;7361427;19;20027;-60
2022/02/17 02:42:45;;;;;;;1.25;0.20;;;11.40;35.90;;;;;;7358424;19;20548;-60
2022/02/17 02:45:15;;;;;;;0.25;0.20;;;11.30;36.40;;;;;;7364670;19;20018;-59
2022/02/17 02:47:45;;;;;;;0.28;0.10;;;11.30;37.00;;;;;;7385173;19;20011;-60
2022/02/17 02:50:15;;;;;;;0.40;0.10;;;11.30;37.50;;;;;;7358977;19;20012;-60
2022/02/17 02:52:47;;;;;;;0.25;0.20;;;11.30;36.70;;;;;;7358719;19;20018;-60
2022/02/17 02:55:18;;;;;;;0.28;0.10;;;11.30;36.90;;;;;;7364499;19;20133;-61
2022/02/17 02:57:48;;;;;;;0.30;0.13;;;11.30;36.80;;;;;;7363551;19;20006;-61
2022/02/17 03:00:18;;;;;;;2.25;0.52;;;11.30;36.90;;;;;;7361619;19;20035;-61
2022/02/17 03:02:48;;;;;;;0.10;0.10;;;11.40;35.80;;;;;;7378360;19;20018;-61
2022/02/17 03:05:18;;;;;;;0.50;0.10;;;11.40;35.50;;;;;;7360507;19;20082;-60
2022/02/17 03:07:52;;;;;;;0.10;0.03;;;11.40;35.60;;;;;;7361215;19;20022;-60
2022/02/17 03:10:22;;;;;;;0.73;0.05;;;11.40;35.30;;;;;;7360512;19;20538;-60
2022/02/17 03:12:52;;;;;;;0.10;0.00;;;11.50;34.90;;;;;;7358307;19;20094;-60
2022/02/17 03:15:23;;;;;;;0.10;0.10;;;11.40;35.40;;;;;;7360768;19;20019;-60
2022/02/17 03:17:54;;;;;;;0.00;0.00;;;11.40;35.90;;;;;;7362341;19;20015;-60
2022/02/17 03:20:24;;;;;;;0.20;0.17;;;11.40;35.60;;;;;;7383295;19;20015;-60
2022/02/17 03:22:57;;;;;;;0.10;0.10;;;11.40;35.80;;;;;;7359206;19;20027;-60
2022/02/17 03:25:29;;;;;;;3.10;0.10;;;11.60;34.30;;;;;;7359896;19;20084;-61
2022/02/17 03:27:59;;;;;;;0.77;0.10;;;11.50;34.40;;;;;;7362325;19;20035;-61
2022/02/17 03:30:29;;;;;;;1.30;0.20;;;11.50;34.80;;;;;;7359136;19;20181;-61
2022/02/17 03:33:00;;;;;;;0.10;0.00;;;11.60;34.50;;;;;;7358062;19;20010;-61
2022/02/17 03:35:30;;;;;;;0.70;0.10;;;11.50;35.50;;;;;;7381449;19;20011;-61
2022/02/17 03:38:02;;;;;;;0.47;0.20;;;11.60;34.20;;;;;;7362619;19;20101;-61
2022/02/17 03:40:32;;;;;;;2.38;0.20;;;11.60;33.40;;;;;;7360554;19;20010;-60
2022/02/17 03:43:02;;;;;;;0.40;0.20;;;11.70;32.70;;;;;;7358445;19;20090;-61
2022/02/17 03:45:32;;;;;;;0.20;0.00;;;11.70;32.20;;;;;;7360515;19;20458;-61
2022/02/17 03:48:02;;;;;;;0.00;0.00;;;11.70;31.30;;;;;;7361127;19;20419;-61
2022/02/17 03:50:32;;;;;;;1.05;0.20;;;11.70;30.80;;;;;;7381741;19;20022;-61
2022/02/17 03:53:05;;;;;;;0.00;0.00;;;11.80;30.00;;;;;;7359244;19;20755;-61
2022/02/17 03:55:34;;;;;;;0.10;0.10;;;11.80;30.00;;;;;;7360479;19;20499;-60
2022/02/17 03:58:04;;;;;;;0.00;0.00;;;11.80;30.00;;;;;;7363878;19;20557;-61
2022/02/17 04:00:35;;;;;;;0.63;0.05;;;11.90;30.10;;;;;;7358254;19;20459;-61
2022/02/17 04:03:05;;;;;;;0.20;0.17;;;11.90;30.10;;;;;;7363958;19;20376;-61
2022/02/17 04:05:36;;;;;;;0.68;0.20;;;11.80;30.00;;;;;;7391651;19;20014;-61
2022/02/17 04:08:09;;;;;;;0.45;0.10;;;11.90;29.00;;;;;;7369391;19;20023;-61
2022/02/17 04:10:38;;;;;;;0.80;0.20;;;11.90;29.00;;;;;;7366675;19;20027;-61
2022/02/17 04:13:08;;;;;;;0.10;0.10;;;11.90;29.30;;;;;;7363903;19;20093;-61
2022/02/17 04:15:38;;;;;;;0.20;0.10;;;11.90;29.80;;;;;;7368758;19;20014;-61
2022/02/17 04:18:08;;;;;;;0.80;0.10;;;11.90;29.50;;;;;;7369526;19;20033;-61
2022/02/17 04:20:38;;;;;;;1.00;0.10;;;11.90;28.50;;;;;;7385136;19;20106;-61
2022/02/17 04:23:11;;;;;;;0.52;0.10;;;12.00;27.20;;;;;;7363038;19;20024;-60
2022/02/17 04:25:41;;;;;;;1.00;0.20;;;12.10;25.30;;;;;;7366711;19;20018;-61
2022/02/17 04:28:11;;;;;;;0.25;0.10;;;12.50;19.30;;;;;;7368327;19;20121;-61
2022/02/17 04:30:41;;;;;;;0.08;0.05;;;12.50;19.40;;;;;;7364870;19;20070;-61
2022/02/17 04:33:11;;;;;;;0.10;0.08;;;12.60;17.90;;;;;;7362751;19;20020;-61
2022/02/17 04:35:40;;;;;;;0.10;0.10;;;12.60;17.50;;;;;;7387721;19;21636;-61
2022/02/17 04:38:13;;;;;;;0.25;0.10;;;12.50;19.40;;;;;;7367783;19;20118;-60
2022/02/17 04:43:25;;;;;;;0.40;0.20;;;12.30;23.10;;;;;;7365357;19;20014;-61
2022/02/17 04:45:55;;;;;;;1.58;0.15;;;12.20;22.20;;;;;;7366289;19;20014;-60
2022/02/17 04:48:29;;;;;;;0.65;0.13;;;12.20;22.30;;;;;;7367419;19;20044;-60
2022/02/17 04:50:59;;;;;;;0.20;0.10;;;12.20;22.60;;;;;;7364268;19;20566;-60
2022/02/17 04:53:31;;;;;;;1.02;0.32;;;12.20;23.30;;;;;;7385703;19;20089;-60
2022/02/17 04:56:01;;;;;;;0.22;0.10;;;12.20;24.90;;;;;;7363514;19;20011;-60
2022/02/17 04:58:31;;;;;;;0.63;0.30;;;12.00;27.60;;;;;;7365989;19;20041;-60
2022/02/17 05:01:01;;;;;;;0.30;0.10;;;12.00;28.90;;;;;;7359847;19;20474;-59
2022/02/17 05:03:31;;;;;;;0.10;0.10;;;12.00;28.70;;;;;;7363468;19;20014;-60
2022/02/17 05:06:02;;;;;;;0.85;0.20;;;11.90;30.10;;;;;;7365682;19;20559;-59
2022/02/17 05:08:37;;;;;;;0.40;0.10;;;11.90;30.50;;;;;;7386840;19;20007;-60
2022/02/17 05:11:07;;;;;;;2.03;0.20;;;11.90;29.30;;;;;;7361876;19;20458;-60
2022/02/17 05:13:37;;;;;;;0.47;0.10;;;11.80;31.70;;;;;;7364577;19;20066;-60
2022/02/17 05:16:07;;;;;;;1.00;0.40;;;11.70;35.60;;;;;;7366058;19;20018;-60
2022/02/17 05:18:41;;;;;;;0.30;0.15;;;11.60;40.10;;;;;;7367389;19;20102;-60
2022/02/17 05:21:11;;;;;;;1.48;0.38;;;11.40;43.70;;;;;;7364045;19;20016;-61
2022/02/17 05:23:44;;;;;;;2.15;0.40;;;11.30;46.30;;;;;;7386177;19;20028;-61
2022/02/17 05:26:14;;;;;;;0.63;0.20;;;11.30;47.70;;;;;;7364735;19;20019;-61
2022/02/17 05:28:44;;;;;;;0.77;0.40;;;11.20;49.90;;;;;;7364396;19;20074;-61
2022/02/17 05:31:14;;;;;;;1.45;0.25;;;11.20;51.60;;;;;;7364076;19;20071;-61
2022/02/17 05:33:44;;;;;;;3.47;0.43;;;11.30;51.80;;;;;;7363737;19;20014;-61
2022/02/17 05:36:14;;;;;;;1.90;0.52;;;11.20;52.60;;;;;;7365717;19;20066;-61
2022/02/17 05:38:47;;;;;;;1.67;0.52;;;11.00;46.30;;;;;;7387341;19;21947;-60
2022/02/17 05:41:17;;;;;;;0.95;0.40;;;10.90;49.30;;;;;;7363251;19;20387;-60
2022/02/17 05:43:47;;;;;;;0.80;0.40;;;10.90;50.20;;;;;;7363424;19;20135;-60
2022/02/17 05:46:17;;;;;;;3.38;0.70;;;11.00;44.70;;;;;;7364235;19;20010;-60
2022/02/17 05:48:46;;;;;;;2.28;0.50;;;10.80;47.40;;;;;;7365279;19;20451;-61
2022/02/17 05:51:18;;;;;;;3.75;1.10;;;10.70;47.50;;;;;;7363941;19;20037;-61
2022/02/17 05:53:51;;;;;;;4.03;1.00;;;10.60;47.00;;;;;;7384533;19;20410;-61
2022/02/17 05:56:21;;;;;;;3.92;1.08;;;10.60;39.90;;;;;;7363300;19;20113;-61
2022/02/17 05:58:50;;;;;;;9.25;1.83;;;10.60;37.60;;;;;;7362085;19;20074;-61
2022/02/17 06:01:20;;;;;;;5.35;1.20;;;10.60;34.50;;;;;;7363952;19;20430;-61
2022/02/17 06:03:52;;;;;;;7.35;1.85;;;10.60;31.90;;;;;;7365995;19;20010;-62
2022/02/17 06:06:22;;;;;;;7.60;1.92;;;10.70;28.30;;;;;;7362843;19;20119;-61
2022/02/17 06:08:56;;;;;;;6.05;1.60;;;10.70;26.90;;;;;;7360052;19;20031;-61
2022/02/17 06:11:26;;;;;;;6.63;1.45;;;10.70;24.00;;;;;;7382879;19;20085;-60
2022/02/17 06:13:56;;;;;;;5.22;1.70;;;10.80;21.60;;;;;;7365247;19;20011;-61
2022/02/17 06:16:26;;;;;;;9.88;1.63;;;10.90;19.20;;;;;;7364920;19;20014;-60
2022/02/17 06:18:56;;;;;;;8.48;1.60;;;10.80;19.80;;;;;;7360225;19;20090;-61
2022/02/17 06:21:26;;;;;;;5.22;1.15;;;10.80;19.70;;;;;;7359277;19;20022;-61
2022/02/17 06:24:00;;;;;;;5.65;1.35;;;11.00;17.10;;;;;;7364322;19;20014;-62
2022/02/17 06:26:30;;;;;;;9.75;1.75;;;10.90;16.70;;;;;;7386634;19;20022;-60
2022/02/17 06:29:00;;;;;;;7.40;1.73;;;10.90;15.60;;;;;;7359370;19;20020;-60
2022/02/17 06:31:31;;;;;;;13.48;2.20;;;10.80;15.00;;;;;;7358664;19;20043;-60
2022/02/17 06:34:01;;;;;;;5.85;1.45;;;10.80;14.60;;;;;;7363181;19;20053;-60
2022/02/17 06:36:31;;;;;;;9.65;1.90;;;10.80;14.60;;;;;;7362638;19;20477;-61
2022/02/17 06:39:04;;;;;;;6.63;2.05;;;10.80;15.50;;;;;;7360252;19;20098;-61
2022/02/17 06:41:34;;;;;;;5.38;1.88;;;11.00;14.20;;;;;;7378425;19;20027;-61
2022/02/17 06:44:04;;;;;;;6.07;1.50;;;10.90;13.60;;;;;;7361492;19;20074;-61
2022/02/17 06:46:34;;;;;;;9.45;1.52;;;11.00;13.60;;;;;;7361532;19;20025;-61
2022/02/17 06:49:04;;;;;;;4.88;1.30;;;11.00;14.00;;;;;;7359753;19;20014;-61
2022/02/17 06:51:34;;;;;;;5.80;1.35;;;10.90;14.40;;;;;;7358400;19;20125;-60
2022/02/17 06:54:07;;;;;;;8.00;1.77;;;10.90;13.40;;;;;;7359834;19;20385;-61
2022/02/17 06:56:37;;;;;;;8.73;2.00;;;11.00;13.00;;;;;;7382991;19;20452;-61
2022/02/17 06:59:07;;;;;;;10.60;1.80;;;11.00;12.00;;;;;;7358609;19;20017;-60
2022/02/17 07:01:37;;;;;;;6.95;1.42;;;11.00;9.00;;;;;;7356433;19;20014;-61
2022/02/17 07:04:08;;;;;;;7.28;2.10;;;11.10;8.50;;;;;;7362915;19;20351;-60
2022/02/17 07:06:42;;;;;;;6.18;1.42;;;11.20;7.40;;;;;;7360672;19;20421;-61
2022/02/17 07:09:15;;;;;;;7.75;1.77;;;11.10;8.90;;;;;;7359505;19;20007;-61
2022/02/17 07:11:45;;;;;;;7.97;1.90;;;11.10;8.50;;;;;;7382906;19;20022;-62
2022/02/17 07:14:15;;;;;;;10.13;1.80;;;11.20;7.10;;;;;;7363251;19;20090;-61
2022/02/17 07:16:45;;;;;;;7.35;2.10;;;11.10;7.80;;;;;;7361558;19;20010;-61
2022/02/17 07:19:17;;;;;;;9.80;2.05;;;11.10;7.80;;;;;;7358939;19;21266;-61
2022/02/17 07:21:49;;;;;;;8.73;2.38;;;11.00;8.50;;;;;;7355497;19;20019;-60
2022/02/17 07:24:23;;;;;;;6.95;1.88;;;11.00;7.80;;;;;;7362499;19;20110;-62
2022/02/17 07:26:53;;;;;;;6.20;1.92;;;11.10;5.10;;;;;;7363881;19;20474;-62
2022/02/17 07:29:23;;;;;;;8.07;2.00;;;11.10;5.60;;;;;;7377275;19;20021;-60
2022/02/17 07:31:53;;;;;;;6.35;1.50;;;11.10;4.80;;;;;;7354111;19;20006;-61
2022/02/17 07:34:23;;;;;;;9.43;2.15;;;11.10;2.50;;;;;;7361396;19;20010;-61
2022/02/17 07:36:53;;;;;;;11.07;2.63;;;11.00;2.70;;;;;;7361795;19;20053;-60
2022/02/17 07:39:26;;;;;;;17.15;2.65;;;10.90;2.40;;;;;;7358710;19;20047;-61
2022/02/17 07:41:56;;;;;;;8.98;2.03;;;10.90;2.20;;;;;;7355974;19;20074;-61
2022/02/17 07:44:26;;;;;;;11.20;2.30;;;11.00;1.00;;;;;;7382428;19;20018;-61
2022/02/17 07:46:57;;;;;;;8.98;1.83;;;11.00;1.40;;;;;;7359222;19;20042;-60
2022/02/17 07:49:27;;;;;;;7.00;1.50;;;10.90;1.00;;;;;;7360399;19;20056;-62
2022/02/17 07:51:56;;;;;;;9.30;1.92;;;10.90;1.00;;;;;;7361398;19;20010;-60
2022/02/17 07:54:29;;;;;;;9.93;2.00;;;10.80;1.00;;;;;;7360547;19;20007;-60
2022/02/17 07:57:02;;;;;;;12.65;2.00;;;10.90;1.00;;;;;;7360400;19;20109;-60
2022/02/17 07:59:32;;;;;;;11.20;2.00;;;10.90;1.00;;;;;;7378661;19;20018;-60
2022/02/17 08:02:02;;;;;;;7.90;2.10;;;11.00;1.50;;;;;;7359706;19;20017;-61
2022/02/17 08:04:35;;;;;;;7.13;1.88;;;11.10;1.00;;;;;;7360964;19;20023;-61
2022/02/17 08:07:06;;;;;;;9.07;2.25;;;11.10;1.00;;;;;;7359242;19;20017;-60
2022/02/17 08:09:38;;;;;;;7.03;1.50;;;11.30;1.00;;;;;;7358680;19;20026;-60
2022/02/17 08:12:08;;;;;;;10.85;2.22;;;11.30;1.00;;;;;;7358113;19;20470;-61
2022/02/17 08:14:38;;;;;;;8.60;1.40;;;11.30;1.00;;;;;;7381682;19;20011;-60
2022/02/17 08:17:08;;;;;;;7.47;1.80;;;11.30;1.00;;;;;;7357289;19;20501;-61
2022/02/17 08:19:38;;;;;;;6.95;1.80;;;11.30;1.00;;;;;;7357768;19;20030;-60
2022/02/17 08:22:08;;;;;;;11.35;2.25;;;11.30;1.00;;;;;;7358926;19;20039;-60
2022/02/17 08:24:40;;;;;;;7.90;1.77;;;11.30;1.00;;;;;;7359867;19;20056;-61
2022/02/17 08:27:11;;;;;;;10.43;2.92;;;11.40;1.00;;;;;;7359018;19;20026;-59
2022/02/17 08:29:42;;;;;;;7.40;1.83;;;11.40;1.00;;;;;;7376817;19;20029;-59
2022/02/17 08:32:12;;;;;;;8.75;2.00;;;11.50;1.00;;;;;;7355059;19;20059;-59
2022/02/17 08:34:42;;;;;;;9.85;1.75;;;11.60;1.00;;;;;;7360156;19;20904;-59
2022/02/17 08:37:12;;;;;;;9.77;2.55;;;11.60;1.00;;;;;;7358582;19;20014;-61
2022/02/17 08:39:44;;;;;;;12.70;2.50;;;11.60;1.00;;;;;;7356231;19;20035;-59
2022/02/17 08:42:14;;;;;;;8.10;1.83;;;11.60;1.00;;;;;;7357053;19;20018;-59
2022/02/17 08:44:44;;;;;;;21.48;2.95;;;11.60;1.00;;;;;;7386820;19;20023;-60
2022/02/17 08:47:15;;;;;;;13.40;2.20;;;11.60;1.00;;;;;;7365727;19;20011;-59
2022/02/17 08:49:46;;;;;;;13.38;2.92;;;11.50;1.00;;;;;;7362160;19;20014;-59
2022/02/17 08:52:16;;;;;;;9.45;2.80;;;11.50;1.00;;;;;;7362858;19;20093;-61
2022/02/17 08:54:48;;;;;;;11.57;2.75;;;11.50;1.00;;;;;;7368574;19;20492;-59
2022/02/17 08:57:18;;;;;;;8.32;2.03;;;11.60;1.00;;;;;;7366751;19;20423;-59
2022/02/17 08:59:48;;;;;;;13.07;2.97;;;11.50;1.00;;;;;;7382651;19;20078;-59
2022/02/17 09:02:18;;;;;;;16.77;3.10;;;11.50;1.00;;;;;;7361865;19;20526;-60
2022/02/17 09:04:48;;;;;;;19.98;3.20;;;11.50;1.00;;;;;;7367384;19;20718;-59
2022/02/17 09:07:18;;;;;;;11.32;2.65;;;11.60;1.00;;;;;;7367122;19;20091;-60
2022/02/17 09:09:51;;;;;;;12.98;2.67;;;11.60;1.00;;;;;;7362305;19;20014;-59
2022/02/17 09:12:22;;;;;;;12.40;2.97;;;11.60;1.00;;;;;;7360681;19;20081;-60
2022/02/17 09:14:51;;;;;;;15.85;3.03;;;11.60;1.00;;;;;;7379690;19;20184;-61
2022/02/17 09:17:21;;;;;;;12.15;3.28;;;11.60;1.00;;;;;;7383946;19;20086;-60
2022/02/17 09:19:51;;;;;;;14.70;2.67;;;11.50;1.00;;;;;;7360073;19;20035;-59
2022/02/17 09:22:21;;;;;;;11.57;2.85;;;11.60;1.00;;;;;;7360130;19;20006;-60
2022/02/17 09:24:54;;;;;;;13.95;3.38;;;11.60;1.00;;;;;;7364526;19;20010;-60
2022/02/17 09:27:24;;;;;;;17.67;2.88;;;11.60;1.00;;;;;;7364973;19;20011;-59
2022/02/17 09:29:57;;;;;;;15.63;2.95;;;11.60;1.00;;;;;;7359941;19;20678;-61
2022/02/17 09:32:27;;;;;;;12.50;2.85;;;11.70;1.00;;;;;;7378476;19;20496;-58
2022/02/17 09:34:57;;;;;;;14.27;3.30;;;11.60;1.00;;;;;;7362610;19;20130;-59
2022/02/17 09:37:35;;;;;;;19.60;3.60;;;11.60;1.00;;;;;;7363843;19;20018;-59
2022/02/17 09:40:09;;;;;;;16.00;3.15;;;11.60;1.00;;;;;;7363311;19;20116;-59
2022/02/17 09:42:39;;;;;;;11.75;3.20;;;11.60;1.00;;;;;;7364113;19;20007;-59
2022/02/17 09:45:11;;;;;;;13.90;2.60;;;11.60;1.00;;;;;;7364386;19;20010;-59
2022/02/17 09:47:41;;;;;;;14.43;2.63;;;11.40;1.00;;;;;;7385937;19;20014;-60
2022/02/17 09:50:13;;;;;;;15.88;3.65;;;11.30;1.00;;;;;;7361748;19;20014;-60
2022/02/17 09:52:44;;;;;;;13.95;2.80;;;11.30;1.00;;;;;;7361310;19;20014;-59
2022/02/17 09:55:17;;;;;;;18.38;3.75;;;11.30;1.00;;;;;;7363211;19;20066;-59
2022/02/17 09:57:46;;;;;;;13.02;3.17;;;11.40;1.00;;;;;;7363519;19;20031;-59
2022/02/17 10:00:17;;;;;;;18.50;3.53;;;11.50;1.00;;;;;;7360406;19;20283;-59
2022/02/17 10:02:47;;;;;;;17.05;2.83;;;11.30;1.00;;;;;;7382880;19;20094;-60
2022/02/17 10:05:17;;;;;;;14.30;3.88;;;11.50;1.00;;;;;;7365962;19;20474;-59
2022/02/17 10:07:50;;;;;;;15.95;3.13;;;11.60;1.00;;;;;;7362281;19;20475;-61
2022/02/17 10:10:23;;;;;;;19.98;4.38;;;11.60;1.00;;;;;;7361722;19;20098;-60
2022/02/17 10:12:56;;;;;;;12.15;2.72;;;11.60;1.00;;;;;;7358424;19;20007;-60
2022/02/17 10:15:31;;;;;;;17.80;2.97;;;11.70;1.00;;;;;;7365738;19;20014;-60
2022/02/17 10:18:08;;;;;;;14.43;2.85;;;11.80;1.00;;;;;;7363944;19;20093;-59
2022/02/17 10:20:54;;;;;;;15.30;3.20;;;11.70;1.00;;;;;;7382047;19;20032;-59
2022/02/17 10:23:25;;;;;;;15.20;3.38;;;11.70;1.00;;;;;;7358697;19;20031;-59
2022/02/17 10:26:07;;;;;;;10.85;2.40;;;11.90;1.00;;;;;;7362184;19;20006;-60
2022/02/17 10:28:38;;;;;;;15.52;2.83;;;11.90;1.00;;;;;;7363310;19;20010;-60
2022/02/17 10:31:10;;;;;;;13.90;3.78;;;11.80;1.00;;;;;;7362451;19;20010;-60
2022/02/17 10:33:42;;;;;;;18.50;3.47;;;11.90;1.00;;;;;;7357604;19;20040;-61
2022/02/17 10:36:14;;;;;;;14.68;2.88;;;12.00;1.00;;;;;;7361805;19;20007;-60
2022/02/17 10:38:46;;;;;;;13.55;2.80;;;12.10;1.00;;;;;;7381959;19;20035;-60
2022/02/17 10:41:18;;;;;;;13.80;3.53;;;12.00;1.00;;;;;;7363565;19;20079;-59
2022/02/17 10:43:49;;;;;;;13.70;3.15;;;11.80;1.00;;;;;;7355947;19;20102;-60
2022/02/17 10:46:19;;;;;;;11.18;3.88;;;11.60;1.00;;;;;;7362483;19;20039;-59
2022/02/17 10:48:55;;;;;;;8.63;2.17;;;11.80;1.00;;;;;;7354434;19;20023;-60
2022/02/17 10:51:25;;;;;;;11.98;2.85;;;11.60;1.00;;;;;;7362592;19;20122;-59
2022/02/17 10:54:01;;;;;;;11.98;2.85;;;11.40;1.00;;;;;;7357972;19;20176;-60
2022/02/17 10:56:36;;;;;;;13.00;2.70;;;11.10;1.00;;;;;;7381794;19;20024;-60
2022/02/17 11:00:00;;;;;;;9.88;2.78;;;11.20;1.00;;;;;;7354946;19;20014;-60
2022/02/17 11:02:02;;;;;;;13.52;2.83;;;11.40;1.00;;;;;;7358325;19;20799;-60
2022/02/17 11:04:33;;;;;;;14.13;3.08;;;11.20;1.00;;;;;;7356485;19;20911;-60
2022/02/17 11:07:03;;;;;;;13.15;3.35;;;11.20;1.00;;;;;;7356001;19;20147;-59
2022/02/17 11:09:35;;;;;;;15.85;3.47;;;11.30;1.00;;;;;;7354826;19;20010;-60
2022/02/17 11:12:08;;;;;;;15.88;3.45;;;11.40;1.00;;;;;;7357276;19;20022;-59
2022/02/17 11:14:39;;;;;;;12.60;2.60;;;11.30;1.00;;;;;;7378218;19;20027;-60
2022/02/17 11:17:10;;;;;;;21.08;3.25;;;11.60;1.00;;;;;;7362011;19;20106;-60
2022/02/17 11:19:53;;;;;;;10.10;3.15;;;11.90;1.00;;;;;;7356745;19;20014;-60
2022/02/17 11:22:23;;;;;;;16.73;4.47;;;12.10;1.00;;;;;;7357765;19;20018;-60
2022/02/17 11:24:55;;;;;;;14.70;2.72;;;12.10;1.00;;;;;;7360323;19;20073;-59
2022/02/17 11:27:28;;;;;;;14.25;3.15;;;12.10;1.00;;;;;;7360811;19;20023;-60
2022/02/17 11:29:58;;;;;;;9.35;2.70;;;12.40;1.00;;;;;;7358953;19;20674;-59
2022/02/17 11:32:28;;;;;;;13.60;2.58;;;12.30;1.00;;;;;;7382376;19;20204;-59
2022/02/17 11:34:59;;;;;;;8.27;2.63;;;12.40;1.00;;;;;;7358605;19;20802;-58
2022/02/17 11:37:50;;;;;;;13.77;3.10;;;12.20;1.00;;;;;;7360198;19;20398;-59
2022/02/17 11:40:20;;;;;;;13.52;3.15;;;12.00;1.00;;;;;;7359585;19;20027;-60
2022/02/17 11:43:05;;;;;;;9.68;2.88;;;12.20;1.00;;;;;;7357665;19;20028;-59
2022/02/17 11:45:47;;;;;;;9.93;2.58;;;12.00;1.00;;;;;;7361777;19;21411;-59
2022/02/17 11:48:17;;;;;;;13.18;2.72;;;12.30;1.00;;;;;;7362351;19;21075;-60
2022/02/17 11:50:48;;;;;;;11.25;2.78;;;12.40;1.00;;;;;;7381153;19;20097;-60
2022/02/17 11:53:30;;;;;;;8.70;2.78;;;12.60;1.00;;;;;;7355020;19;20023;-59
2022/02/17 11:56:29;;;;;;;11.95;2.75;;;12.40;1.00;;;;;;7358375;19;20788;-60
2022/02/17 11:59:02;;;;;;;16.25;3.88;;;12.40;1.00;;;;;;7353919;19;20014;-59
2022/02/17 12:01:44;;;;;;;10.57;2.90;;;12.50;1.00;;;;;;7361142;19;20471;-61
2022/02/17 12:04:34;;;;;;;8.00;2.50;;;12.70;1.00;;;;;;7356198;19;20097;-59
2022/02/17 12:07:08;;;;;;;9.43;3.08;;;12.60;1.00;;;;;;7361100;19;20051;-59
2022/02/17 12:09:43;;;;;;;12.95;2.38;;;12.60;1.00;;;;;;7355542;19;20018;-59
2022/02/17 12:12:50;;;;;;;9.95;2.53;;;12.70;1.00;;;;;;7354650;19;20010;-60
2022/02/17 12:15:23;;;;;;;8.20;2.38;;;12.80;1.00;;;;;;7358014;19;20082;-59
2022/02/17 12:17:53;;;;;;;12.25;2.92;;;12.60;1.00;;;;;;7363175;19;20028;-60
2022/02/17 12:20:25;;;;;;;9.10;2.05;;;12.30;1.00;;;;;;7383876;19;20351;-59
2022/02/17 12:23:07;;;;;;;8.73;2.28;;;12.60;1.00;;;;;;7363259;19;20482;-60
2022/02/17 12:25:39;;;;;;;9.05;2.35;;;12.60;1.00;;;;;;7363950;19;20368;-60
2022/02/17 12:28:11;;;;;;;6.25;1.70;;;12.50;1.00;;;;;;7366174;19;20424;-60
2022/02/17 12:30:46;;;;;;;10.25;2.33;;;12.60;1.00;;;;;;7365499;19;20031;-59
2022/02/17 12:33:18;;;;;;;11.70;2.40;;;12.40;1.00;;;;;;7362635;19;20089;-60
2022/02/17 12:35:57;;;;;;;9.45;2.45;;;12.30;1.00;;;;;;7382788;19;20026;-60
2022/02/17 12:38:30;;;;;;;11.05;2.65;;;12.30;1.00;;;;;;7364222;19;20032;-59
2022/02/17 12:41:01;;;;;;;13.32;2.35;;;12.40;1.00;;;;;;7361350;19;20015;-59
2022/02/17 12:43:33;;;;;;;12.35;2.70;;;12.30;1.00;;;;;;7362260;19;20018;-60
2022/02/17 12:46:08;;;;;;;17.25;3.30;;;12.30;1.00;;;;;;7366858;19;20015;-61
2022/02/17 12:48:43;;;;;;;13.65;2.85;;;12.10;1.00;;;;;;7363749;19;20019;-59
2022/02/17 12:51:30;;;;;;;7.30;1.90;;;12.20;1.00;;;;;;7363979;19;20680;-60
2022/02/17 12:54:08;;;;;;;7.93;2.25;;;11.80;1.00;;;;;;7358748;19;20021;-60
2022/02/17 12:56:41;;;;;;;14.38;3.22;;;11.90;1.00;;;;;;7387829;19;20098;-60
2022/02/17 12:59:12;;;;;;;12.30;2.97;;;11.90;1.00;;;;;;7360644;19;20497;-61
2022/02/17 13:01:46;;;;;;;12.82;3.15;;;12.10;1.00;;;;;;7364489;19;20356;-60
2022/02/17 13:04:19;;;;;;;13.75;3.47;;;12.00;1.00;;;;;;7359190;19;20090;-59
2022/02/17 13:06:49;;;;;;;16.02;3.95;;;11.70;1.00;;;;;;7365510;19;20143;-59
2022/02/17 13:09:21;;;;;;;14.75;3.72;;;11.80;1.00;;;;;;7361050;19;20308;-60
2022/02/17 13:11:53;;;;;;;22.75;3.83;;;11.70;1.00;;;;;;7388330;19;20014;-61
2022/02/17 13:14:26;;;;;;;17.55;4.82;;;11.20;1.00;;;;;;7360736;19;20039;-61